createdAt,value
2018-08-28T00:02:29.145Z,101087.36
2018-08-28T00:04:56.486Z,101086.43
2018-08-28T00:07:23.698Z,101093.84
2018-08-28T00:09:50.893Z,101091.19
2018-08-28T00:12:18.115Z,101098.98
2018-08-28T00:14:45.801Z,101109.55
2018-08-28T00:17:13.425Z,101104.63
2018-08-28T00:19:40.659Z,101107.53
2018-08-28T00:22:07.864Z,101110.34
2018-08-28T00:24:35.145Z,101109.19
2018-08-28T00:27:02.683Z,101113.00
2018-08-28T00:29:29.864Z,101107.80
2018-08-28T00:31:57.056Z,101113.23
2018-08-28T00:34:24.225Z,101114.31
2018-08-28T00:36:51.477Z,101113.59
2018-08-28T00:39:18.756Z,101120.69
2018-08-28T00:41:46.047Z,101123.50
2018-08-28T00:44:13.452Z,101124.42
2018-08-28T00:46:40.719Z,101122.31
2018-08-28T00:49:07.935Z,101130.48
2018-08-28T00:51:35.233Z,101132.06
2018-08-28T00:54:02.521Z,101142.03
2018-08-28T00:56:29.708Z,101139.69
2018-08-28T00:58:56.889Z,101149.45
2018-08-28T01:01:24.172Z,101146.91
2018-08-28T01:03:51.678Z,101155.17
2018-08-28T01:06:18.833Z,101157.77
2018-08-28T01:08:46.376Z,101160.08
2018-08-28T01:11:13.541Z,101163.59
2018-08-28T01:13:40.768Z,101171.66
2018-08-28T01:16:08.112Z,101176.10
2018-08-28T01:18:35.288Z,101169.47
2018-08-28T01:21:02.445Z,101170.10
2018-08-28T01:23:29.693Z,101176.36
2018-08-28T01:25:56.970Z,101178.81
2018-08-28T01:28:24.318Z,101178.47
2018-08-28T01:30:51.736Z,101182.86
2018-08-28T01:33:18.837Z,101189.59
2018-08-28T01:35:46.127Z,101185.12
2018-08-28T01:38:13.533Z,101183.38
2018-08-28T01:40:40.854Z,101191.84
2018-08-28T01:43:13.632Z,101193.28
2018-08-28T01:45:40.805Z,101195.47
2018-08-28T01:48:07.982Z,101198.39
2018-08-28T01:50:35.297Z,101202.32
2018-08-28T01:53:02.610Z,101203.45
2018-08-28T01:55:29.812Z,101204.62
2018-08-28T01:57:57.037Z,101212.28
2018-08-28T02:00:24.237Z,101211.96
2018-08-28T02:02:51.693Z,101203.76
2018-08-28T02:05:18.988Z,101208.45
2018-08-28T02:07:46.446Z,101212.15
2018-08-28T02:10:13.653Z,101212.75
2018-08-28T02:12:40.877Z,101211.07
2018-08-28T02:15:08.140Z,101212.61
2018-08-28T02:17:35.438Z,101213.67
2018-08-28T02:20:02.719Z,101210.31
2018-08-28T02:22:29.895Z,101208.42
2018-08-28T02:24:57.049Z,101218.78
2018-08-28T02:27:24.327Z,101210.41
2018-08-28T02:29:51.594Z,101207.86
2018-08-28T02:32:18.708Z,101205.80
2018-08-28T02:34:46.520Z,101206.78
2018-08-28T02:37:13.789Z,101211.06
2018-08-28T02:39:41.025Z,101214.22
2018-08-28T02:42:08.364Z,101213.59
2018-08-28T02:44:35.564Z,101216.46
2018-08-28T02:47:02.795Z,101211.50
2018-08-28T02:49:29.989Z,101213.01
2018-08-28T02:51:57.224Z,101218.47
2018-08-28T02:54:24.547Z,101214.85
2018-08-28T02:56:51.748Z,101220.96
2018-08-28T02:59:18.879Z,101223.25
2018-08-28T03:01:46.302Z,101224.80
2018-08-28T03:04:13.636Z,101224.95
2018-08-28T03:06:40.938Z,101228.64
2018-08-28T03:09:08.297Z,101231.80
2018-08-28T03:11:38.824Z,101234.45
2018-08-28T03:14:05.954Z,101241.13
2018-08-28T03:16:33.189Z,101242.55
2018-08-28T03:19:00.547Z,101244.41
2018-08-28T03:21:27.777Z,101255.16
2018-08-28T03:23:58.460Z,101256.48
2018-08-28T03:26:25.672Z,101257.61
2018-08-28T03:28:53.145Z,101259.89
2018-08-28T03:31:20.448Z,101267.96
2018-08-28T03:33:47.627Z,101272.69
2018-08-28T03:36:14.761Z,101274.88
2018-08-28T03:38:42.158Z,101274.63
2018-08-28T03:41:09.410Z,101272.94
2018-08-28T03:43:36.626Z,101279.61
2018-08-28T03:46:03.774Z,101281.28
2018-08-28T03:48:31.556Z,101279.34
2018-08-28T03:50:58.813Z,101285.63
2018-08-28T03:53:25.980Z,101291.95
2018-08-28T03:55:53.821Z,101289.59
2018-08-28T03:58:21.013Z,101288.06
2018-08-28T04:00:48.350Z,101303.16
2018-08-28T04:03:15.565Z,101302.90
2018-08-28T04:05:42.775Z,101304.83
2018-08-28T04:08:10.376Z,101300.91
2018-08-28T04:10:37.624Z,101302.69
2018-08-28T04:13:04.997Z,101299.66
2018-08-28T04:15:33.472Z,101308.47
2018-08-28T04:18:01.571Z,101305.28
2018-08-28T04:20:28.900Z,101310.99
2018-08-28T04:22:56.021Z,101312.66
2018-08-28T04:25:23.247Z,101309.06
2018-08-28T04:27:50.956Z,101312.84
2018-08-28T04:30:18.489Z,101311.02
2018-08-28T04:32:46.830Z,101311.80
2018-08-28T04:35:14.949Z,101317.36
2018-08-28T04:37:42.837Z,101320.80
2018-08-28T04:40:10.088Z,101323.24
2018-08-28T04:42:37.313Z,101323.70
2018-08-28T04:45:04.683Z,101330.23
2018-08-28T04:47:31.992Z,101334.55
2018-08-28T04:49:59.137Z,101338.52
2018-08-28T04:52:26.264Z,101336.61
2018-08-28T04:54:53.840Z,101340.39
2018-08-28T04:57:24.373Z,101338.77
2018-08-28T04:59:51.947Z,101343.13
2018-08-28T05:02:19.134Z,101347.05
2018-08-28T05:04:46.689Z,101343.99
2018-08-28T05:07:13.849Z,101347.05
2018-08-28T05:09:41.393Z,101349.29
2018-08-28T05:12:10.668Z,101346.55
2018-08-28T05:14:37.876Z,101347.02
2018-08-28T05:17:05.088Z,101362.53
2018-08-28T05:19:32.973Z,101356.89
2018-08-28T05:22:00.450Z,101353.67
2018-08-28T05:24:27.781Z,101356.78
2018-08-28T05:26:55.000Z,101361.50
2018-08-28T05:29:22.232Z,101367.88
2018-08-28T05:31:49.824Z,101369.41
2018-08-28T05:34:17.177Z,101369.12
2018-08-28T05:36:44.322Z,101368.62
2018-08-28T05:39:11.567Z,101373.13
2018-08-28T05:41:38.712Z,101368.72
2018-08-28T05:44:05.931Z,101367.35
2018-08-28T05:46:33.785Z,101372.41
2018-08-28T05:49:01.397Z,101379.24
2018-08-28T05:51:28.764Z,101376.13
2018-08-28T05:53:55.971Z,101374.68
2018-08-28T05:56:23.156Z,101377.06
2018-08-28T05:58:50.687Z,101382.74
2018-08-28T06:01:17.859Z,101386.77
2018-08-28T06:03:45.004Z,101382.47
2018-08-28T06:06:12.143Z,101383.66
2018-08-28T06:08:39.455Z,101380.50
2018-08-28T06:11:06.765Z,101381.14
2018-08-28T06:13:35.632Z,101384.72
2018-08-28T06:16:02.840Z,101387.42
2018-08-28T06:18:29.967Z,101387.78
2018-08-28T06:20:57.242Z,101391.70
2018-08-28T06:23:24.541Z,101391.64
2018-08-28T06:25:51.668Z,101391.81
2018-08-28T06:28:18.801Z,101394.27
2018-08-28T06:30:45.944Z,101403.14
2018-08-28T06:33:13.104Z,101398.92
2018-08-28T06:35:40.412Z,101396.30
2018-08-28T06:38:07.579Z,101401.61
2018-08-28T06:40:34.910Z,101405.08
2018-08-28T06:43:02.047Z,101407.75
2018-08-28T06:45:29.276Z,101415.83
2018-08-28T06:47:56.624Z,101412.28
2018-08-28T06:50:23.721Z,101413.85
2018-08-28T06:52:50.897Z,101413.16
2018-08-28T06:55:18.133Z,101415.96
2018-08-28T06:57:45.312Z,101415.20
2018-08-28T07:00:12.586Z,101422.05
2018-08-28T07:02:39.704Z,101412.76
2018-08-28T07:05:06.949Z,101417.96
2018-08-28T07:07:34.191Z,101410.70
2018-08-28T07:10:01.318Z,101428.58
2018-08-28T07:12:28.775Z,101421.57
2018-08-28T07:14:55.996Z,101418.30
2018-08-28T07:17:23.147Z,101421.36
2018-08-28T07:19:50.293Z,101420.55
2018-08-28T07:22:17.497Z,101421.87
2018-08-28T07:24:44.651Z,101427.84
2018-08-28T07:27:11.806Z,101425.02
2018-08-28T07:29:38.979Z,101429.94
2018-08-28T07:32:06.123Z,101432.30
2018-08-28T07:34:33.332Z,101434.56
2018-08-28T07:37:00.577Z,101439.75
2018-08-28T07:39:27.685Z,101438.42
2018-08-28T07:41:54.833Z,101441.72
2018-08-28T07:44:22.494Z,101445.25
2018-08-28T07:46:50.772Z,101444.34
2018-08-28T07:49:17.960Z,101446.00
2018-08-28T07:51:45.359Z,101448.83
2018-08-28T07:54:13.396Z,101451.97
2018-08-28T07:56:40.495Z,101452.84
2018-08-28T07:59:07.708Z,101459.28
2018-08-28T08:01:34.943Z,101460.08
2018-08-28T08:04:02.360Z,101465.42
2018-08-28T08:06:29.612Z,101462.86
2018-08-28T08:08:56.795Z,101463.08
2018-08-28T08:11:23.953Z,101463.41
2018-08-28T08:13:51.175Z,101480.92
2018-08-28T08:16:18.527Z,101473.69
2018-08-28T08:18:45.560Z,101473.91
2018-08-28T08:21:12.852Z,101471.02
2018-08-28T08:23:40.013Z,101474.41
2018-08-28T08:26:07.263Z,101472.05
2018-08-28T08:28:34.508Z,101475.52
2018-08-28T08:31:01.733Z,101472.36
2018-08-28T08:33:28.909Z,101472.61
2018-08-28T08:35:56.179Z,101478.06
2018-08-28T08:38:23.365Z,101477.87
2018-08-28T08:40:50.503Z,101485.30
2018-08-28T08:43:17.870Z,101477.08
2018-08-28T08:45:46.382Z,101482.36
2018-08-28T08:48:13.995Z,101482.32
2018-08-28T08:50:41.644Z,101488.64
2018-08-28T08:53:09.017Z,101489.28
2018-08-28T08:55:36.239Z,101487.16
2018-08-28T08:58:03.889Z,101486.41
2018-08-28T09:00:31.980Z,101492.15
2018-08-28T09:02:59.463Z,101487.30
2018-08-28T09:05:26.747Z,101492.23
2018-08-28T09:07:54.641Z,101493.14
2018-08-28T09:10:22.288Z,101487.78
2018-08-28T09:12:50.021Z,101484.56
2018-08-28T09:15:17.738Z,101487.38
2018-08-28T09:17:45.173Z,101489.36
2018-08-28T09:20:12.776Z,101483.61
2018-08-28T09:22:40.727Z,101483.59
2018-08-28T09:25:08.193Z,101483.31
2018-08-28T09:27:35.572Z,101481.68
2018-08-28T09:30:02.919Z,101490.98
2018-08-28T09:32:30.027Z,101489.41
2018-08-28T09:34:57.295Z,101491.47
2018-08-28T09:37:24.585Z,101485.63
2018-08-28T09:39:51.757Z,101490.38
2018-08-28T09:42:19.065Z,101483.92
2018-08-28T09:44:46.177Z,101479.86
2018-08-28T09:47:13.400Z,101481.71
2018-08-28T09:49:40.742Z,101480.67
2018-08-28T09:52:07.950Z,101485.88
2018-08-28T09:54:35.165Z,101487.10
2018-08-28T09:57:02.557Z,101477.59
2018-08-28T09:59:29.808Z,101481.77
2018-08-28T10:01:57.139Z,101483.47
2018-08-28T10:04:24.447Z,101477.98
2018-08-28T10:06:51.565Z,101475.59
2018-08-28T10:09:18.908Z,101476.57
2018-08-28T10:11:54.650Z,101486.36
2018-08-28T10:14:21.839Z,101491.44
2018-08-28T10:16:49.093Z,101488.77
2018-08-28T10:19:16.403Z,101487.62
2018-08-28T10:21:43.750Z,101493.69
2018-08-28T10:24:11.294Z,101494.27
2018-08-28T10:26:38.671Z,101491.42
2018-08-28T10:29:05.811Z,101489.75
2018-08-28T10:31:33.219Z,101491.35
2018-08-28T10:34:00.515Z,101494.55
2018-08-28T10:36:27.612Z,101492.80
2018-08-28T10:38:54.789Z,101498.13
2018-08-28T10:41:22.249Z,101503.80
2018-08-28T10:43:49.690Z,101496.00
2018-08-28T10:46:16.902Z,101494.83
2018-08-28T10:48:44.221Z,101497.42
2018-08-28T10:51:11.481Z,101497.77
2018-08-28T10:53:38.716Z,101504.09
2018-08-28T10:56:07.876Z,101509.84
2018-08-28T10:58:35.012Z,101505.94
2018-08-28T11:01:02.361Z,101509.30
2018-08-28T11:03:29.700Z,101500.02
2018-08-28T11:05:56.848Z,101505.33
2018-08-28T11:08:24.500Z,101509.64
2018-08-28T11:10:51.785Z,101507.96
2018-08-28T11:13:19.013Z,101505.88
2018-08-28T11:15:46.309Z,101508.55
2018-08-28T11:18:13.644Z,101507.36
2018-08-28T11:20:40.856Z,101495.91
2018-08-28T11:23:08.893Z,101507.06
2018-08-28T11:25:36.109Z,101508.00
2018-08-28T11:28:03.484Z,101509.38
2018-08-28T11:30:30.725Z,101508.03
2018-08-28T11:32:57.925Z,101508.91
2018-08-28T11:35:25.128Z,101518.86
2018-08-28T11:37:52.236Z,101515.22
2018-08-28T11:40:22.429Z,101516.76
2018-08-28T11:42:49.652Z,101511.61
2018-08-28T11:45:16.920Z,101516.50
2018-08-28T11:47:44.075Z,101516.38
2018-08-28T11:50:11.401Z,101518.36
2018-08-28T11:52:38.528Z,101518.05
2018-08-28T11:55:06.122Z,101517.32
2018-08-28T11:57:33.372Z,101520.63
2018-08-28T12:00:00.721Z,101519.72
2018-08-28T12:02:27.953Z,101519.38
2018-08-28T12:04:55.181Z,101516.53
2018-08-28T12:07:22.544Z,101511.75
2018-08-28T12:09:49.816Z,101516.26
2018-08-28T12:12:17.186Z,101509.36
2018-08-28T12:14:44.438Z,101509.04
2018-08-28T12:17:14.557Z,101515.78
2018-08-28T12:19:42.405Z,101519.55
2018-08-28T12:22:09.671Z,101514.16
2018-08-28T12:24:36.899Z,101513.66
2018-08-28T12:27:04.328Z,101507.50
2018-08-28T12:29:35.750Z,101506.10
2018-08-28T12:32:03.712Z,101506.82
2018-08-28T12:34:31.484Z,101512.13
2018-08-28T12:36:59.665Z,101500.58
2018-08-28T12:39:30.627Z,101498.02
2018-08-28T12:41:57.845Z,101501.41
2018-08-28T12:44:27.924Z,101501.46
2018-08-28T12:46:58.504Z,101508.95
2018-08-28T12:49:26.700Z,101501.19
2018-08-28T12:51:54.077Z,101502.72
2018-08-28T12:54:21.291Z,101502.47
2018-08-28T12:56:53.255Z,101506.58
2018-08-28T12:59:20.984Z,101501.45
2018-08-28T13:01:48.305Z,101500.11
2018-08-28T13:04:17.553Z,101496.53
2018-08-28T13:06:51.444Z,101493.88
2018-08-28T13:09:20.200Z,101494.36
2018-08-28T13:11:48.433Z,101491.77
2018-08-28T13:14:15.852Z,101489.41
2018-08-28T13:16:42.986Z,101483.21
2018-08-28T13:19:10.174Z,101497.38
2018-08-28T13:21:38.280Z,101491.64
2018-08-28T13:24:05.442Z,101494.28
2018-08-28T13:26:32.594Z,101501.05
2018-08-28T13:29:00.355Z,101492.36
2018-08-28T13:31:27.538Z,101494.33
2018-08-28T13:33:54.720Z,101498.16
2018-08-28T13:36:22.016Z,101496.17
2018-08-28T13:38:49.240Z,101490.62
2018-08-28T13:41:16.481Z,101497.59
2018-08-28T13:43:43.683Z,101489.73
2018-08-28T13:46:10.869Z,101496.20
2018-08-28T13:48:38.141Z,101489.47
2018-08-28T13:51:05.581Z,101491.55
2018-08-28T13:53:32.752Z,101492.86
2018-08-28T13:56:00.558Z,101494.37
2018-08-28T13:58:27.994Z,101490.80
2018-08-28T14:00:55.272Z,101482.83
2018-08-28T14:03:22.586Z,101489.32
2018-08-28T14:05:49.844Z,101487.45
2018-08-28T14:08:17.037Z,101492.94
2018-08-28T14:10:44.196Z,101489.12
2018-08-28T14:13:11.459Z,101492.75
2018-08-28T14:15:38.757Z,101489.60
2018-08-28T14:18:05.904Z,101486.16
2018-08-28T14:20:34.161Z,101492.55
2018-08-28T14:23:01.625Z,101489.14
2018-08-28T14:25:28.860Z,101489.75
2018-08-28T14:27:56.304Z,101496.20
2018-08-28T14:30:23.423Z,101499.62
2018-08-28T14:32:50.609Z,101496.11
2018-08-28T14:35:17.808Z,101499.17
2018-08-28T14:37:45.877Z,101492.70
2018-08-28T14:40:13.004Z,101488.75
2018-08-28T14:42:40.768Z,101502.22
2018-08-28T14:45:07.880Z,101494.19
2018-08-28T14:47:35.021Z,101488.38
2018-08-28T14:50:02.358Z,101484.05
2018-08-28T14:52:29.425Z,101493.18
2018-08-28T14:54:56.547Z,101486.88
2018-08-28T14:57:23.831Z,101490.66
2018-08-28T14:59:51.660Z,101488.28
2018-08-28T15:02:18.880Z,101485.44
2018-08-28T15:04:46.040Z,101484.37
2018-08-28T15:07:13.889Z,101482.02
2018-08-28T15:09:42.145Z,101476.38
2018-08-28T15:12:11.105Z,101483.83
2018-08-28T15:14:38.925Z,101476.30
2018-08-28T15:17:06.780Z,101483.51
2018-08-28T15:19:34.246Z,101482.73
2018-08-28T15:22:03.253Z,101480.72
2018-08-28T15:24:31.858Z,101478.51
2018-08-28T15:26:59.265Z,101477.16
2018-08-28T15:29:26.899Z,101471.41
2018-08-28T15:31:54.679Z,101470.85
2018-08-28T15:34:21.861Z,101474.29
2018-08-28T15:36:49.098Z,101470.61
2018-08-28T15:39:16.697Z,101474.43
2018-08-28T15:41:44.509Z,101474.75
2018-08-28T15:44:12.471Z,101479.32
2018-08-28T15:46:39.917Z,101478.14
2018-08-28T15:49:07.648Z,101481.11
2018-08-28T15:51:35.677Z,101485.34
2018-08-28T15:54:03.320Z,101478.34
2018-08-28T15:56:31.020Z,101484.42
2018-08-28T15:58:58.475Z,101483.63
2018-08-28T16:01:26.564Z,101486.51
2018-08-28T16:03:55.881Z,101491.91
2018-08-28T16:06:23.274Z,101487.87
2018-08-28T16:08:50.562Z,101492.67
2018-08-28T16:13:44.813Z,101490.00
2018-08-28T16:16:11.966Z,101489.73
2018-08-28T16:18:39.800Z,101492.69
2018-08-28T16:21:07.805Z,101490.41
2018-08-28T16:23:37.660Z,101487.70
2018-08-28T16:26:04.841Z,101482.91
2018-08-28T16:28:32.052Z,101488.63
2018-08-28T16:30:59.347Z,101488.09
2018-08-28T16:33:26.614Z,101488.48
2018-08-28T16:35:53.804Z,101488.68
2018-08-28T16:38:20.956Z,101488.86
2018-08-28T16:40:48.218Z,101478.31
2018-08-28T16:43:15.447Z,101484.70
2018-08-28T16:45:43.810Z,101483.34
2018-08-28T16:48:11.509Z,101490.31
2018-08-28T16:50:38.705Z,101490.31
2018-08-28T16:53:05.897Z,101485.08
2018-08-28T16:55:33.139Z,101487.47
2018-08-28T16:58:00.279Z,101484.22
2018-08-28T17:00:27.407Z,101481.70
2018-08-28T17:02:54.611Z,101484.47
2018-08-28T17:05:21.733Z,101483.03
2018-08-28T17:07:48.857Z,101485.12
2018-08-28T17:10:16.421Z,101485.66
2018-08-28T17:12:43.888Z,101482.81
2018-08-28T17:15:11.344Z,101482.73
2018-08-28T17:17:38.899Z,101483.06
2018-08-28T17:20:06.096Z,101486.41
2018-08-28T17:22:33.203Z,101487.07
2018-08-28T17:25:00.996Z,101484.45
2018-08-28T17:27:28.200Z,101480.70
2018-08-28T17:29:55.359Z,101485.05
2018-08-28T17:32:22.538Z,101479.49
2018-08-28T17:34:49.721Z,101486.75
2018-08-28T17:37:16.870Z,101485.57
2018-08-28T17:39:44.204Z,101490.52
2018-08-28T17:42:11.387Z,101484.76
2018-08-28T17:44:38.618Z,101484.87
2018-08-28T17:47:05.839Z,101490.66
2018-08-28T17:49:33.006Z,101485.41
2018-08-28T17:52:00.124Z,101491.14
2018-08-28T17:54:27.369Z,101494.12
2018-08-28T17:56:54.520Z,101494.89
2018-08-28T17:59:21.865Z,101499.52
2018-08-28T18:01:49.052Z,101502.86
2018-08-28T18:04:16.154Z,101503.54
2018-08-28T18:06:43.324Z,101504.66
2018-08-28T18:09:10.547Z,101503.89
2018-08-28T18:11:37.721Z,101511.59
2018-08-28T18:14:04.879Z,101517.96
2018-08-28T18:16:32.232Z,101520.72
2018-08-28T18:19:00.003Z,101511.91
2018-08-28T18:21:27.110Z,101513.14
2018-08-28T18:23:54.458Z,101510.53
2018-08-28T18:26:21.584Z,101515.73
2018-08-28T18:28:48.763Z,101516.19
2018-08-28T18:31:15.924Z,101515.80
2018-08-28T18:33:43.080Z,101518.37
2018-08-28T18:36:10.206Z,101518.61
2018-08-28T18:38:37.536Z,101522.52
2018-08-28T18:41:04.871Z,101524.55
2018-08-28T18:43:31.886Z,101527.94
2018-08-28T18:45:59.058Z,101525.98
2018-08-28T18:48:26.178Z,101528.86
2018-08-28T18:50:53.301Z,101527.34
2018-08-28T18:53:20.538Z,101529.34
2018-08-28T18:55:47.673Z,101529.58
2018-08-28T18:58:14.867Z,101529.75
2018-08-28T19:00:42.128Z,101528.22
2018-08-28T19:03:09.255Z,101524.53
2018-08-28T19:05:36.427Z,101523.39
2018-08-28T19:08:07.237Z,101514.31
2018-08-28T19:10:34.358Z,101519.41
2018-08-28T19:13:01.475Z,101521.70
2018-08-28T19:15:28.759Z,101514.40
2018-08-28T19:17:55.883Z,101517.21
2018-08-28T19:20:23.034Z,101517.80
2018-08-28T19:22:50.292Z,101515.72
2018-08-28T19:25:17.418Z,101514.94
2018-08-28T19:27:44.535Z,101514.72
2018-08-28T19:30:11.778Z,101510.41
2018-08-28T19:32:38.888Z,101514.17
2018-08-28T19:35:06.090Z,101515.23
2018-08-28T19:37:33.346Z,101514.48
2018-08-28T19:40:00.480Z,101517.78
2018-08-28T19:42:27.645Z,101512.63
2018-08-28T19:44:55.826Z,101515.85
2018-08-28T19:47:23.008Z,101509.76
2018-08-28T19:49:50.140Z,101504.57
2018-08-28T19:52:17.320Z,101503.33
2018-08-28T19:54:44.436Z,101506.88
2018-08-28T19:57:11.565Z,101509.67
2018-08-28T19:59:38.730Z,101504.87
2018-08-28T20:02:05.893Z,101509.79
2018-08-28T20:04:33.022Z,101508.20
2018-08-28T20:07:00.235Z,101516.67
2018-08-28T20:09:27.365Z,101511.90
2018-08-28T20:11:54.486Z,101513.33
2018-08-28T20:14:21.833Z,101512.22
2018-08-28T20:16:48.984Z,101510.03
2018-08-28T20:19:16.105Z,101508.81
2018-08-28T20:21:43.262Z,101507.55
2018-08-28T20:24:10.485Z,101506.80
2018-08-28T20:26:37.635Z,101514.84
2018-08-28T20:29:04.951Z,101516.27
2018-08-28T20:31:32.089Z,101516.38
2018-08-28T20:33:59.229Z,101508.98
2018-08-28T20:36:26.490Z,101510.90
2018-08-28T20:38:53.667Z,101514.06
2018-08-28T20:41:20.828Z,101504.00
2018-08-28T20:43:48.177Z,101509.88
2018-08-28T20:46:15.340Z,101508.20
2018-08-28T20:48:42.549Z,101508.78
2018-08-28T20:51:09.820Z,101502.69
2018-08-28T20:53:36.996Z,101504.98
2018-08-28T20:56:04.223Z,101508.08
2018-08-28T20:58:32.799Z,101505.95
2018-08-28T21:00:59.941Z,101501.14
2018-08-28T21:03:27.067Z,101505.69
2018-08-28T21:05:54.304Z,101507.49
2018-08-28T21:08:22.461Z,101505.88
2018-08-28T21:10:49.551Z,101497.97
2018-08-28T21:13:16.772Z,101496.81
2018-08-28T21:15:43.915Z,101508.26
2018-08-28T21:18:17.845Z,101501.73
2018-08-28T21:20:45.269Z,101505.70
2018-08-28T21:23:12.396Z,101504.86
2018-08-28T21:25:39.643Z,101509.73
2018-08-28T21:28:06.779Z,101509.86
2018-08-28T21:30:33.965Z,101508.56
2018-08-28T21:33:01.173Z,101507.36
2018-08-28T21:35:28.284Z,101501.66
2018-08-28T21:37:55.402Z,101502.26
2018-08-28T21:40:22.621Z,101510.25
2018-08-28T21:42:49.739Z,101509.41
2018-08-28T21:45:16.907Z,101506.01
2018-08-28T21:47:44.147Z,101509.08
2018-08-28T21:50:11.274Z,101515.34
2018-08-28T21:52:38.425Z,101506.62
2018-08-28T21:55:05.717Z,101511.10
2018-08-28T21:57:32.887Z,101507.22
2018-08-28T22:00:00.050Z,101505.08
2018-08-28T22:02:27.227Z,101507.33
2018-08-28T22:04:54.355Z,101512.66
2018-08-28T22:07:27.187Z,101508.36
2018-08-28T22:09:54.313Z,101510.64
2018-08-28T22:12:21.434Z,101507.21
2018-08-28T22:14:48.680Z,101509.45
2018-08-28T22:17:15.786Z,101510.38
2018-08-28T22:19:42.941Z,101508.19
2018-08-28T22:22:10.220Z,101509.11
2018-08-28T22:24:37.333Z,101507.84
2018-08-28T22:27:04.497Z,101505.25
2018-08-28T22:29:31.728Z,101509.64
2018-08-28T22:31:58.861Z,101510.11
2018-08-28T22:34:26.063Z,101509.35
2018-08-28T22:36:53.298Z,101508.98
2018-08-28T22:39:20.448Z,101513.44
2018-08-28T22:41:47.643Z,101517.80
2018-08-28T22:44:14.848Z,101515.20
2018-08-28T22:46:42.027Z,101517.95
2018-08-28T22:49:09.156Z,101518.45
2018-08-28T22:51:36.398Z,101511.45
2018-08-28T22:54:03.589Z,101511.95
2018-08-28T22:56:30.661Z,101516.83
2018-08-28T22:58:57.814Z,101515.11
2018-08-28T23:01:25.216Z,101505.08
2018-08-28T23:03:52.311Z,101503.35
2018-08-28T23:06:19.518Z,101504.77
2018-08-28T23:08:46.635Z,101507.43
2018-08-28T23:11:14.642Z,101504.89
2018-08-28T23:13:41.933Z,101511.05
2018-08-28T23:16:09.039Z,101506.23
2018-08-28T23:18:36.144Z,101502.30
2018-08-28T23:21:03.324Z,101503.64
2018-08-28T23:23:30.452Z,101497.57
2018-08-28T23:25:57.573Z,101501.57
2018-08-28T23:28:24.928Z,101493.23
2018-08-28T23:30:52.037Z,101490.59
2018-08-28T23:33:19.159Z,101491.91
2018-08-28T23:35:46.370Z,101493.67
2018-08-28T23:38:13.482Z,101493.70
2018-08-28T23:40:40.594Z,101494.17
2018-08-28T23:43:07.784Z,101489.86
2018-08-28T23:45:34.901Z,101490.75
2018-08-28T23:48:02.071Z,101492.55
2018-08-28T23:50:29.233Z,101487.81
2018-08-28T23:52:56.344Z,101488.66
2018-08-28T23:55:23.490Z,101481.69
2018-08-28T23:57:50.735Z,101486.96
